createdAt,value
2022-12-23T00:00:45.455Z,9.47
2022-12-23T00:03:12.849Z,10.47
2022-12-23T00:05:40.901Z,8.73
2022-12-23T00:08:08.761Z,8.80
2022-12-23T00:10:40.140Z,8.27
2022-12-23T00:13:26.703Z,8.23
2022-12-23T00:16:08.542Z,8.87
2022-12-23T00:18:36.475Z,8.13
2022-12-23T00:21:09.061Z,8.90
2022-12-23T00:23:41.345Z,7.90
2022-12-23T00:26:13.080Z,8.03
2022-12-23T00:28:40.571Z,8.57
2022-12-23T00:31:08.238Z,8.30
2022-12-23T00:33:39.072Z,8.63
2022-12-23T00:36:21.962Z,8.50
2022-12-23T00:39:08.145Z,9.13
2022-12-23T00:41:54.337Z,9.33
2022-12-23T00:44:21.706Z,9.57
2022-12-23T00:46:49.849Z,10.53
2022-12-23T00:49:37.156Z,8.97
2022-12-23T00:52:06.688Z,8.40
2022-12-23T00:54:34.057Z,10.50
2022-12-23T00:57:01.807Z,10.73
2022-12-23T00:59:29.083Z,8.73
2022-12-23T01:02:14.924Z,9.43
2022-12-23T01:05:00.536Z,9.87
2022-12-23T01:07:27.893Z,10.47
2022-12-23T01:09:55.208Z,12.80
2022-12-23T01:12:22.453Z,9.00
2022-12-23T01:14:49.960Z,11.80
2022-12-23T01:17:17.321Z,20.63
2022-12-23T01:19:44.568Z,31.83
2022-12-23T01:22:11.750Z,36.50
2022-12-23T01:24:39.062Z,32.80
2022-12-23T01:27:06.307Z,49.13
2022-12-23T01:29:33.509Z,50.83
2022-12-23T01:32:01.398Z,56.97
2022-12-23T01:34:34.278Z,43.53
2022-12-23T01:37:03.874Z,53.03
2022-12-23T01:39:30.989Z,43.83
2022-12-23T01:42:17.141Z,39.77
2022-12-23T01:44:55.736Z,34.83
2022-12-23T01:47:34.228Z,29.40
2022-12-23T01:50:07.578Z,23.80
2022-12-23T01:52:40.655Z,21.07
2022-12-23T01:55:08.414Z,17.73
2022-12-23T01:57:38.931Z,16.77
2022-12-23T02:00:25.268Z,13.77
2022-12-23T02:03:11.565Z,13.93
2022-12-23T02:05:39.455Z,17.03
2022-12-23T02:08:25.555Z,16.03
2022-12-23T02:11:02.532Z,30.53
2022-12-23T02:14:08.523Z,35.13
2022-12-23T02:16:46.332Z,31.23
2022-12-23T02:19:35.453Z,31.03
2022-12-23T02:22:23.226Z,29.63
2022-12-23T02:24:56.173Z,54.83
2022-12-23T02:28:01.295Z,74.60
2022-12-23T02:30:40.819Z,54.50
2022-12-23T02:33:29.875Z,41.97
2022-12-23T02:36:33.422Z,48.00
2022-12-23T02:39:07.960Z,36.37
2022-12-23T02:41:45.934Z,20.97
2022-12-23T02:44:46.102Z,24.77
2022-12-23T02:47:21.986Z,20.13
2022-12-23T02:49:54.628Z,20.03
2022-12-23T02:52:26.821Z,17.63
2022-12-23T02:54:59.517Z,16.33
2022-12-23T02:57:32.888Z,15.23
2022-12-23T03:00:01.955Z,17.27
2022-12-23T03:02:31.125Z,16.70
2022-12-23T03:05:00.892Z,22.27
2022-12-23T03:07:36.032Z,16.37
2022-12-23T03:10:14.139Z,22.07
2022-12-23T03:13:14.208Z,17.80
2022-12-23T03:16:25.701Z,18.97
2022-12-23T03:18:52.808Z,16.23
2022-12-23T03:21:31.191Z,15.73
2022-12-23T03:24:08.951Z,13.70
2022-12-23T03:27:01.672Z,14.63
2022-12-23T03:29:44.800Z,14.67
2022-12-23T03:32:14.988Z,18.73
2022-12-23T03:34:47.387Z,16.43
2022-12-23T03:37:18.116Z,20.70
2022-12-23T03:40:05.286Z,18.30
2022-12-23T03:42:37.624Z,17.83
2022-12-23T03:48:21.058Z,15.10
2022-12-23T03:50:52.608Z,16.30
2022-12-23T03:53:36.894Z,14.30
2022-12-23T03:56:13.255Z,15.80
2022-12-23T03:58:47.987Z,14.97
2022-12-23T04:01:20.599Z,19.13
2022-12-23T04:03:53.951Z,15.20
2022-12-23T04:06:24.391Z,17.00
2022-12-23T04:08:52.686Z,16.17
2022-12-23T04:11:20.529Z,15.30
2022-12-23T04:13:48.883Z,15.50
2022-12-23T04:16:16.824Z,16.67
2022-12-23T04:18:44.064Z,19.23
2022-12-23T04:21:11.213Z,25.13
2022-12-23T04:23:38.360Z,18.20
2022-12-23T04:26:05.615Z,17.50
2022-12-23T04:28:32.814Z,19.73
2022-12-23T04:31:00.038Z,21.23
2022-12-23T04:33:27.161Z,22.43
2022-12-23T04:35:54.346Z,19.83
2022-12-23T04:38:21.451Z,19.07
2022-12-23T04:40:48.629Z,20.17
2022-12-23T04:43:15.800Z,17.67
2022-12-23T04:45:43.255Z,19.57
2022-12-23T04:48:10.630Z,17.97
2022-12-23T04:50:37.847Z,19.13
2022-12-23T04:53:04.978Z,16.97
2022-12-23T04:55:32.177Z,17.00
2022-12-23T04:57:59.351Z,17.60
2022-12-23T05:00:26.718Z,17.40
2022-12-23T05:02:54.017Z,15.00
2022-12-23T05:05:21.323Z,18.77
2022-12-23T05:07:51.325Z,15.13
2022-12-23T05:10:18.715Z,16.80
2022-12-23T05:12:45.959Z,14.67
2022-12-23T05:15:13.294Z,20.00
2022-12-23T05:17:41.142Z,21.50
2022-12-23T05:20:09.245Z,15.50
2022-12-23T05:22:36.373Z,16.20
2022-12-23T05:25:03.775Z,18.73
2022-12-23T05:27:30.992Z,20.00
2022-12-23T05:29:58.096Z,17.40
2022-12-23T05:32:25.356Z,17.37
2022-12-23T05:34:52.452Z,18.40
2022-12-23T05:37:19.645Z,18.67
2022-12-23T05:39:47.171Z,23.20
2022-12-23T05:42:19.522Z,17.93
2022-12-23T05:44:46.881Z,16.37
2022-12-23T05:47:14.146Z,15.13
2022-12-23T05:49:41.393Z,19.63
2022-12-23T05:52:08.557Z,25.80
2022-12-23T05:54:35.744Z,28.93
2022-12-23T05:57:03.365Z,19.27
2022-12-23T05:59:31.601Z,18.37
2022-12-23T06:01:59.455Z,24.53
2022-12-23T06:04:27.083Z,30.70
2022-12-23T06:06:54.398Z,26.43
2022-12-23T06:09:21.633Z,27.17
2022-12-23T06:11:48.905Z,22.67
2022-12-23T06:14:16.285Z,24.33
2022-12-23T06:16:43.597Z,36.40
2022-12-23T06:19:10.766Z,39.50
2022-12-23T06:21:38.004Z,43.73
2022-12-23T06:24:05.665Z,35.87
2022-12-23T06:26:34.101Z,59.70
2022-12-23T06:29:01.230Z,57.00
2022-12-23T06:31:28.691Z,63.50
2022-12-23T06:33:55.857Z,45.33
2022-12-23T06:36:23.142Z,41.37
2022-12-23T06:38:50.394Z,53.43
2022-12-23T06:41:17.560Z,44.83
2022-12-23T06:43:47.769Z,39.00
2022-12-23T06:46:18.605Z,44.63
2022-12-23T06:48:45.747Z,54.40
2022-12-23T06:51:13.105Z,158.07
2022-12-23T06:53:40.567Z,159.33
2022-12-23T06:56:07.730Z,111.60
2022-12-23T06:58:34.930Z,63.00
2022-12-23T07:01:02.111Z,67.10
2022-12-23T07:03:29.318Z,56.53
2022-12-23T07:05:56.553Z,56.53
2022-12-23T07:08:24.171Z,44.57
2022-12-23T07:10:51.324Z,39.43
2022-12-23T07:13:18.507Z,40.50
2022-12-23T07:15:45.744Z,78.30
2022-12-23T07:18:12.894Z,117.63
2022-12-23T07:20:40.265Z,93.43
2022-12-23T07:23:07.513Z,65.00
2022-12-23T07:25:34.688Z,51.27
2022-12-23T07:28:01.830Z,55.40
2022-12-23T07:30:29.530Z,53.10
2022-12-23T07:32:56.874Z,59.27
2022-12-23T07:35:24.169Z,59.90
2022-12-23T07:37:55.722Z,50.70
2022-12-23T07:40:23.989Z,45.60
2022-12-23T07:42:55.243Z,43.73
2022-12-23T07:45:22.532Z,40.03
2022-12-23T07:47:56.608Z,47.37
2022-12-23T07:50:24.899Z,55.97
2022-12-23T07:52:53.151Z,53.80
2022-12-23T07:55:20.945Z,42.80
2022-12-23T07:57:52.577Z,44.37
2022-12-23T08:00:23.925Z,43.53
2022-12-23T08:02:51.181Z,46.43
2022-12-23T08:05:18.994Z,39.33
2022-12-23T08:07:46.260Z,38.70
2022-12-23T08:10:13.720Z,39.17
2022-12-23T08:12:41.096Z,44.40
2022-12-23T08:15:09.433Z,57.43
2022-12-23T08:17:36.622Z,60.70
2022-12-23T08:20:03.909Z,92.50
2022-12-23T08:22:32.131Z,75.80
2022-12-23T08:25:00.126Z,71.20
2022-12-23T08:27:27.434Z,82.27
2022-12-23T08:29:54.624Z,69.43
2022-12-23T08:32:21.941Z,66.27
2022-12-23T08:34:49.088Z,48.77
2022-12-23T08:37:16.946Z,48.03
2022-12-23T08:39:44.174Z,56.47
2022-12-23T08:42:11.439Z,44.50
2022-12-23T08:44:38.831Z,48.50
2022-12-23T08:47:06.373Z,37.13
2022-12-23T08:49:33.596Z,45.53
2022-12-23T08:52:00.886Z,53.10
2022-12-23T08:54:31.435Z,35.83
2022-12-23T08:56:58.903Z,30.50
2022-12-23T08:59:26.221Z,29.17
2022-12-23T09:01:53.515Z,29.23
2022-12-23T09:04:20.765Z,27.50
2022-12-23T09:06:47.955Z,29.17
2022-12-23T09:09:16.370Z,23.47
2022-12-23T09:11:44.009Z,30.20
2022-12-23T09:14:12.063Z,28.50
2022-12-23T09:16:40.927Z,30.30
2022-12-23T09:19:08.249Z,41.43
2022-12-23T09:21:35.784Z,30.60
2022-12-23T09:24:02.925Z,50.23
2022-12-23T09:26:31.752Z,32.60
2022-12-23T09:28:59.609Z,43.43
2022-12-23T09:31:32.600Z,40.47
2022-12-23T09:34:03.742Z,43.40
2022-12-23T09:36:33.378Z,43.90
2022-12-23T09:39:00.598Z,46.93
2022-12-23T09:41:49.117Z,65.70
2022-12-23T09:44:39.281Z,96.20
2022-12-23T09:47:13.662Z,53.10
2022-12-23T09:49:53.471Z,55.27
2022-12-23T09:52:27.543Z,47.47
2022-12-23T09:54:56.018Z,30.43
2022-12-23T09:57:35.596Z,27.47
2022-12-23T10:00:10.513Z,26.80
2022-12-23T10:02:49.269Z,32.23
2022-12-23T10:05:25.538Z,26.30
2022-12-23T10:08:01.758Z,24.10
2022-12-23T10:10:44.100Z,60.20
2022-12-23T10:13:27.275Z,68.30
2022-12-23T10:15:58.305Z,48.40
2022-12-23T10:18:39.377Z,36.27
2022-12-23T10:21:47.557Z,36.37
2022-12-23T10:24:25.699Z,42.03
2022-12-23T10:26:55.756Z,49.73
2022-12-23T10:29:27.932Z,38.23
2022-12-23T10:32:22.481Z,29.13
2022-12-23T10:34:56.052Z,35.30
2022-12-23T10:37:23.225Z,35.03
2022-12-23T10:40:05.581Z,26.73
2022-12-23T10:43:10.641Z,30.97
2022-12-23T10:45:54.473Z,35.33
2022-12-23T10:48:47.834Z,34.97
2022-12-23T10:51:20.967Z,50.87
2022-12-23T10:53:59.720Z,34.83
2022-12-23T10:56:28.803Z,21.73
2022-12-23T10:58:58.522Z,17.40
2022-12-23T11:01:27.881Z,14.17
2022-12-23T11:04:09.150Z,16.40
2022-12-23T11:06:42.996Z,59.33
2022-12-23T11:09:18.197Z,31.00
2022-12-23T11:12:05.122Z,28.70
2022-12-23T11:14:42.054Z,41.77
2022-12-23T11:17:36.197Z,22.17
2022-12-23T11:20:17.204Z,19.30
2022-12-23T11:23:27.042Z,23.80
2022-12-23T11:26:17.830Z,30.97
2022-12-23T11:28:53.498Z,48.23
2022-12-23T11:31:28.588Z,40.30
2022-12-23T11:34:06.841Z,54.93
2022-12-23T11:36:35.240Z,37.60
2022-12-23T11:39:15.665Z,39.57
2022-12-23T11:41:44.983Z,27.97
2022-12-23T11:44:26.934Z,26.13
2022-12-23T11:46:54.331Z,29.33
2022-12-23T11:49:31.750Z,33.87
2022-12-23T11:52:11.816Z,33.83
2022-12-23T11:54:39.977Z,35.93
2022-12-23T11:57:15.659Z,44.63
2022-12-23T11:59:46.480Z,45.83
2022-12-23T12:02:42.664Z,49.93
2022-12-23T12:05:32.359Z,42.03
2022-12-23T12:08:07.103Z,41.27
2022-12-23T12:10:37.598Z,261.17
2022-12-23T12:13:22.775Z,110.80
2022-12-23T12:16:01.832Z,20.57
2022-12-23T12:18:30.285Z,11.07
2022-12-23T12:21:07.222Z,6.60
2022-12-23T12:23:43.445Z,4.43
2022-12-23T12:26:27.783Z,5.17
2022-12-23T12:29:18.497Z,4.00
2022-12-23T12:31:51.555Z,3.60
2022-12-23T12:34:32.390Z,7.60
2022-12-23T12:37:10.359Z,3.00
2022-12-23T12:39:52.139Z,7.07
2022-12-23T12:42:27.375Z,7.60
2022-12-23T12:45:19.512Z,3.60
2022-12-23T12:48:18.321Z,3.53
2022-12-23T12:51:24.683Z,4.80
2022-12-23T12:54:04.628Z,3.87
2022-12-23T12:56:40.173Z,7.20
2022-12-23T12:59:12.880Z,10.70
2022-12-23T13:02:03.119Z,6.07
2022-12-23T13:04:57.874Z,4.63
2022-12-23T13:07:45.652Z,4.47
2022-12-23T13:10:45.164Z,5.13
2022-12-23T13:13:36.766Z,24.93
2022-12-23T13:16:06.989Z,8.67
2022-12-23T13:18:59.078Z,9.20
2022-12-23T13:21:50.685Z,8.07
2022-12-23T13:24:27.331Z,9.47
2022-12-23T13:27:00.938Z,20.17
2022-12-23T13:29:30.953Z,9.70
2022-12-23T13:32:14.934Z,13.20
2022-12-23T13:35:23.790Z,32.57
2022-12-23T13:38:09.467Z,20.33
2022-12-23T13:41:17.913Z,11.07
2022-12-23T13:44:05.537Z,9.50
2022-12-23T13:47:00.439Z,22.57
2022-12-23T13:49:53.208Z,65.00
2022-12-23T13:52:28.863Z,279.80
2022-12-23T13:54:58.981Z,56.93
2022-12-23T13:57:29.151Z,47.27
2022-12-23T14:00:25.075Z,36.67
2022-12-23T14:03:03.216Z,232.03
2022-12-23T14:05:41.223Z,57.60
2022-12-23T14:08:20.711Z,99.97
2022-12-23T14:11:09.126Z,91.30
2022-12-23T14:13:51.472Z,61.47
2022-12-23T14:16:21.802Z,60.20
2022-12-23T14:19:15.741Z,73.80
2022-12-23T14:22:20.173Z,70.40
2022-12-23T14:25:24.087Z,57.27
2022-12-23T14:28:26.861Z,46.27
2022-12-23T14:30:54.166Z,61.43
2022-12-23T14:33:27.513Z,62.23
2022-12-23T14:38:17.398Z,58.40
2022-12-23T14:41:00.858Z,44.07
2022-12-23T14:43:47.099Z,21.67
2022-12-23T14:46:36.065Z,57.23
2022-12-23T14:49:38.986Z,70.80
2022-12-23T14:52:44.449Z,65.00
2022-12-23T14:55:33.004Z,41.63
2022-12-23T14:58:22.340Z,125.63
2022-12-23T15:01:00.793Z,59.53
2022-12-23T15:03:33.308Z,105.67
2022-12-23T15:06:06.617Z,113.57
2022-12-23T15:08:41.082Z,260.50
2022-12-23T15:11:17.473Z,178.00
2022-12-23T15:13:45.277Z,168.40
2022-12-23T15:16:20.254Z,109.83
2022-12-23T15:19:03.014Z,145.70
2022-12-23T15:21:34.585Z,188.70
2022-12-23T15:24:02.252Z,176.27
2022-12-23T15:26:31.997Z,86.90
2022-12-23T15:29:00.926Z,97.10
2022-12-23T15:31:31.408Z,90.43
2022-12-23T15:34:11.718Z,101.63
2022-12-23T15:36:44.967Z,122.20
2022-12-23T15:39:21.377Z,146.40
2022-12-23T15:41:49.240Z,124.50
2022-12-23T15:44:21.059Z,125.63
2022-12-23T15:46:49.652Z,182.80
2022-12-23T15:49:19.534Z,294.60
2022-12-23T15:52:13.905Z,344.77
2022-12-23T15:54:53.060Z,329.53
2022-12-23T15:57:22.140Z,344.50
2022-12-23T15:59:49.788Z,369.40
2022-12-23T16:02:59.766Z,249.77
2022-12-23T16:05:23.635Z,139.13
2022-12-23T16:07:53.732Z,119.93
2022-12-23T16:10:22.317Z,109.10
2022-12-23T16:12:51.312Z,89.40
2022-12-23T16:15:26.082Z,73.03
2022-12-23T16:18:11.701Z,97.77
2022-12-23T16:20:47.932Z,83.77
2022-12-23T16:23:16.925Z,54.03
2022-12-23T16:25:50.900Z,59.00
2022-12-23T16:28:27.346Z,76.17
2022-12-23T16:30:58.002Z,93.20
2022-12-23T16:33:34.635Z,108.57
2022-12-23T16:36:20.990Z,93.97
2022-12-23T16:38:50.209Z,137.60
2022-12-23T16:41:19.036Z,155.13
2022-12-23T16:43:52.080Z,127.70
2022-12-23T16:46:22.826Z,220.30
2022-12-23T16:48:57.939Z,148.50
2022-12-23T16:51:26.626Z,103.80
2022-12-23T16:53:56.676Z,112.60
2022-12-23T16:56:28.052Z,254.47
2022-12-23T16:58:55.770Z,189.80
2022-12-23T17:01:26.214Z,165.57
2022-12-23T17:03:53.788Z,147.50
2022-12-23T17:06:22.318Z,132.10
2022-12-23T17:08:50.013Z,113.00
2022-12-23T17:11:38.406Z,119.27
2022-12-23T17:14:11.887Z,135.10
2022-12-23T17:16:42.897Z,92.07
2022-12-23T17:19:10.303Z,61.97
2022-12-23T17:21:39.343Z,44.80
2022-12-23T17:24:25.903Z,48.17
2022-12-23T17:26:57.096Z,34.07
2022-12-23T17:29:24.659Z,30.93
2022-12-23T17:31:52.348Z,29.97
2022-12-23T17:34:24.969Z,33.93
2022-12-23T17:36:53.093Z,49.87
2022-12-23T17:39:21.915Z,102.93
2022-12-23T17:41:49.774Z,174.17
2022-12-23T17:44:17.999Z,108.57
2022-12-23T17:46:45.976Z,61.27
2022-12-23T17:49:13.537Z,92.33
2022-12-23T17:51:41.889Z,104.63
2022-12-23T17:54:24.893Z,65.73
2022-12-23T17:56:52.886Z,94.33
2022-12-23T17:59:20.619Z,76.67
2022-12-23T18:01:48.195Z,83.77
2022-12-23T18:04:15.852Z,78.90
2022-12-23T18:06:43.078Z,78.70
2022-12-23T18:09:10.268Z,72.93
2022-12-23T18:11:42.128Z,74.63
2022-12-23T18:14:17.869Z,83.30
2022-12-23T18:16:45.386Z,89.83
2022-12-23T18:19:22.083Z,98.07
2022-12-23T18:21:50.364Z,110.57
2022-12-23T18:24:18.547Z,88.33
2022-12-23T18:26:46.362Z,92.03
2022-12-23T18:29:13.846Z,84.90
2022-12-23T18:31:51.194Z,77.17
2022-12-23T18:34:20.124Z,80.87
2022-12-23T18:36:48.716Z,85.80
2022-12-23T18:39:16.118Z,73.83
2022-12-23T18:41:43.259Z,77.87
2022-12-23T18:44:20.889Z,74.77
2022-12-23T18:46:49.103Z,88.60
2022-12-23T18:49:16.336Z,111.10
2022-12-23T18:51:43.677Z,106.23
2022-12-23T18:54:17.221Z,98.87
2022-12-23T18:56:44.776Z,103.53
2022-12-23T18:59:27.461Z,94.30
2022-12-23T19:01:57.185Z,90.80
2022-12-23T19:04:24.708Z,95.43
2022-12-23T19:06:52.227Z,114.50
2022-12-23T19:09:21.914Z,148.03
2022-12-23T19:11:50.722Z,143.17
2022-12-23T19:14:18.046Z,161.10
2022-12-23T19:16:51.234Z,231.13
2022-12-23T19:19:19.656Z,197.20
2022-12-23T19:21:47.516Z,140.20
2022-12-23T19:24:14.797Z,115.13
2022-12-23T19:26:42.493Z,116.83
2022-12-23T19:29:09.809Z,129.30
2022-12-23T19:31:37.118Z,163.50
2022-12-23T19:34:06.979Z,228.73
2022-12-23T19:36:36.921Z,158.70
2022-12-23T19:39:04.561Z,114.07
2022-12-23T19:41:32.014Z,106.10
2022-12-23T19:43:59.254Z,88.63
2022-12-23T19:46:26.433Z,84.90
2022-12-23T19:48:54.201Z,81.63
2022-12-23T19:51:21.424Z,80.90
2022-12-23T19:53:51.449Z,169.03
2022-12-23T19:56:23.075Z,185.73
2022-12-23T19:58:50.967Z,184.20
2022-12-23T20:01:25.519Z,194.87
2022-12-23T20:03:54.503Z,174.07
2022-12-23T20:06:26.493Z,221.57
2022-12-23T20:09:00.130Z,245.70
2022-12-23T20:11:31.300Z,231.70
2022-12-23T20:13:59.075Z,208.67
2022-12-23T20:16:27.206Z,168.30
2022-12-23T20:18:55.643Z,83.87
2022-12-23T20:21:23.617Z,106.27
2022-12-23T20:23:51.046Z,111.77
2022-12-23T20:26:20.155Z,133.77
2022-12-23T20:28:47.818Z,131.67
2022-12-23T20:31:21.639Z,123.20
2022-12-23T20:33:52.571Z,149.57
2022-12-23T20:36:29.224Z,113.93
2022-12-23T20:38:57.345Z,78.83
2022-12-23T20:41:27.577Z,65.60
2022-12-23T20:46:42.589Z,73.50
2022-12-23T20:49:09.876Z,61.70
2022-12-23T20:51:37.530Z,104.57
2022-12-23T20:54:04.833Z,113.63
2022-12-23T20:56:32.103Z,113.10
2022-12-23T20:59:00.459Z,80.70
2022-12-23T21:01:38.262Z,65.97
2022-12-23T21:04:12.104Z,88.23
2022-12-23T21:06:39.735Z,100.57
2022-12-23T21:09:09.508Z,79.20
2022-12-23T21:11:39.453Z,71.93
2022-12-23T21:14:08.039Z,70.87
2022-12-23T21:16:37.747Z,64.37
2022-12-23T21:19:09.491Z,62.27
2022-12-23T21:21:36.917Z,68.60
2022-12-23T21:24:05.193Z,68.77
2022-12-23T21:26:34.421Z,74.50
2022-12-23T21:29:04.803Z,71.63
2022-12-23T21:31:34.277Z,70.67
2022-12-23T21:34:02.432Z,66.17
2022-12-23T21:36:33.749Z,58.27
2022-12-23T21:39:02.700Z,59.50
2022-12-23T21:41:37.474Z,61.50
2022-12-23T21:44:05.479Z,59.70
2022-12-23T21:46:32.991Z,62.17
2022-12-23T21:49:01.430Z,54.47
2022-12-23T21:51:41.917Z,50.67
2022-12-23T21:54:11.573Z,47.17
2022-12-23T21:56:40.193Z,45.93
2022-12-23T21:59:12.395Z,46.07
2022-12-23T22:01:40.084Z,49.90
2022-12-23T22:04:08.172Z,50.70
2022-12-23T22:06:39.034Z,53.73
2022-12-23T22:09:07.907Z,59.97
2022-12-23T22:11:36.874Z,79.03
2022-12-23T22:14:06.611Z,67.60
2022-12-23T22:16:34.726Z,63.80
2022-12-23T22:19:02.967Z,54.93
2022-12-23T22:21:32.310Z,48.43
2022-12-23T22:24:00.295Z,54.97
2022-12-23T22:26:30.583Z,52.27
2022-12-23T22:29:00.911Z,55.63
2022-12-23T22:31:35.223Z,64.37
2022-12-23T22:34:02.908Z,76.50
2022-12-23T22:36:30.793Z,65.90
2022-12-23T22:38:59.776Z,74.83
2022-12-23T22:41:28.534Z,76.33
2022-12-23T22:43:56.778Z,71.87
2022-12-23T22:46:24.930Z,72.03
2022-12-23T22:48:53.178Z,89.37
2022-12-23T22:51:28.981Z,155.33
2022-12-23T22:53:57.173Z,106.10
2022-12-23T22:56:25.287Z,151.07
2022-12-23T22:58:53.503Z,329.33
2022-12-23T23:01:33.368Z,293.30
2022-12-23T23:04:02.805Z,207.20
2022-12-23T23:06:39.735Z,127.50
2022-12-23T23:09:09.508Z,114.27
2022-12-23T23:11:37.315Z,182.87
2022-12-23T23:14:05.583Z,164.93
2022-12-23T23:16:33.621Z,145.17
2022-12-23T23:19:01.248Z,135.37
2022-12-23T23:21:29.186Z,171.57
2022-12-23T23:23:56.509Z,146.23
2022-12-23T23:26:27.596Z,158.70
2022-12-23T23:28:56.512Z,103.40
2022-12-23T23:34:12.392Z,228.23
2022-12-23T23:36:40.435Z,210.77
2022-12-23T23:39:08.520Z,170.83
2022-12-23T23:41:36.089Z,205.47
2022-12-23T23:44:03.217Z,110.27
2022-12-23T23:46:31.958Z,101.40
2022-12-23T23:49:02.657Z,72.80
2022-12-23T23:51:30.131Z,68.10
2022-12-23T23:53:57.584Z,49.53
2022-12-23T23:56:26.223Z,47.83
2022-12-23T23:58:53.606Z,63.57
